Main page
METAR-TAF:

METAR-TAF

Airports :

Florennes Air Base

Florennes, Belgium

latitude: 50-14N, longitude: 004-39E, elevation: 279 m

Current weather observation

The report was made 29 minutes ago, at 16:25 UTC
Wind 3 kt from the East
Temperature 16°C
Humidity 82%
Pressure 1010 hPa
Visibility 10 km or more

METAR: EBFS 231625Z AUTO 08003KT 9999 FEW085/// BKN100/// BKN130/// 16/13 Q1010 BLU

Time: 18:54 (16:54 UTC)

Forecast

The report was made 8 hours and 13 minutes ago, at 08:41 UTC
Forecast valid from 23 at 10 UTC to 23 at 19 UTC
Wind 8 kt from the East
Visibility 10 km or more
Scattered clouds at a height of 10000 ft
Becoming
from 23 at 14 UTC to 23 at 16 UTC
Wind 8 kt from the South/Southeast

TAF: EBFS 230841Z 2310/2319 10008KT 9999 SCT100 BECMG 2314/2316 15008KT

Weather observations and forecasts of more than 4000 airports (METAR and TAF reports).

The available stations are represented by yellow and red dots on the map.

Hover mouse over dot to see the name of the station.

Then click to see weather observations and forecasts.

To change the map : click on the green buttons with a black cross to zoom in, on the green button with a dash to zoom out, or on the green arrows for adjacent maps.


METAR-TAF: